createdAt,value
2017-09-17T00:00:28.666Z,0.00
2017-09-17T00:01:28.663Z,0.00
2017-09-17T00:02:28.660Z,0.00
2017-09-17T00:03:28.653Z,0.00
2017-09-17T00:04:28.658Z,0.00
2017-09-17T00:05:28.647Z,0.00
2017-09-17T00:06:28.643Z,0.00
2017-09-17T00:07:28.641Z,0.00
2017-09-17T00:08:28.633Z,0.00
2017-09-17T00:09:28.630Z,0.00
2017-09-17T00:10:28.624Z,0.00
2017-09-17T00:11:28.621Z,0.00
2017-09-17T00:12:28.615Z,0.00
2017-09-17T00:13:28.612Z,0.00
2017-09-17T00:14:28.608Z,0.00
2017-09-17T00:15:28.606Z,0.00
2017-09-17T00:16:28.599Z,0.00
2017-09-17T00:17:28.595Z,0.00
2017-09-17T00:18:28.590Z,0.00
2017-09-17T00:19:28.586Z,0.00
2017-09-17T00:20:28.582Z,0.00
2017-09-17T00:21:28.578Z,0.00
2017-09-17T00:22:28.576Z,0.00
2017-09-17T00:23:28.570Z,0.00
2017-09-17T00:24:28.565Z,0.00
2017-09-17T00:25:28.560Z,0.00
2017-09-17T00:26:28.555Z,0.00
2017-09-17T00:27:28.550Z,0.00
2017-09-17T00:28:28.545Z,0.00
2017-09-17T00:29:28.542Z,0.00
2017-09-17T00:30:28.540Z,0.00
2017-09-17T00:31:28.533Z,0.00
2017-09-17T00:32:28.528Z,0.00
2017-09-17T00:33:28.524Z,0.00
2017-09-17T00:34:28.520Z,0.00
2017-09-17T00:35:28.514Z,0.00
2017-09-17T00:36:28.512Z,0.00
2017-09-17T00:37:28.506Z,0.00
2017-09-17T00:38:28.501Z,0.00
2017-09-17T00:39:28.498Z,0.00
2017-09-17T00:40:28.493Z,0.00
2017-09-17T00:41:28.489Z,0.00
2017-09-17T00:42:28.485Z,0.00
2017-09-17T00:43:28.478Z,0.00
2017-09-17T00:44:28.475Z,0.00
2017-09-17T00:45:28.471Z,0.00
2017-09-17T00:46:28.466Z,0.00
2017-09-17T00:47:28.461Z,0.00
2017-09-17T00:48:28.457Z,0.00
2017-09-17T00:49:28.452Z,0.00
2017-09-17T00:50:28.448Z,0.00
2017-09-17T00:51:28.443Z,0.00
2017-09-17T00:52:28.440Z,0.00
2017-09-17T00:53:28.433Z,0.00
2017-09-17T00:54:28.430Z,0.00
2017-09-17T00:55:28.425Z,0.00
2017-09-17T00:56:28.420Z,0.00
2017-09-17T00:57:28.416Z,0.00
2017-09-17T00:58:28.412Z,0.00
2017-09-17T00:59:28.406Z,0.00
2017-09-17T01:00:28.403Z,0.00
2017-09-17T01:01:28.398Z,0.00
2017-09-17T01:02:28.392Z,0.00
2017-09-17T01:03:28.388Z,0.00
2017-09-17T01:04:28.382Z,0.00
2017-09-17T01:05:28.380Z,0.00
2017-09-17T01:06:28.376Z,0.00
2017-09-17T01:07:28.370Z,0.00
2017-09-17T01:08:28.364Z,0.00
2017-09-17T01:09:28.361Z,0.00
2017-09-17T01:10:28.357Z,0.00
2017-09-17T01:11:28.352Z,0.00
2017-09-17T01:12:28.348Z,0.00
2017-09-17T01:13:28.342Z,0.00
2017-09-17T01:14:28.339Z,0.00
2017-09-17T01:15:28.333Z,0.00
2017-09-17T01:16:28.328Z,0.00
2017-09-17T01:17:28.324Z,0.00
2017-09-17T01:18:28.321Z,0.00
2017-09-17T01:19:28.315Z,0.00
2017-09-17T01:20:28.311Z,0.00
2017-09-17T01:21:28.306Z,0.00
2017-09-17T01:22:28.302Z,0.00
2017-09-17T01:23:28.297Z,0.00
2017-09-17T01:24:28.292Z,0.00
2017-09-17T01:25:28.290Z,0.00
2017-09-17T01:26:28.283Z,0.00
2017-09-17T01:27:28.278Z,0.00
2017-09-17T01:28:28.274Z,0.00
2017-09-17T01:29:28.268Z,0.00
2017-09-17T01:30:28.264Z,0.00
2017-09-17T01:31:28.259Z,0.00
2017-09-17T01:32:28.253Z,0.00
2017-09-17T01:33:28.249Z,0.00
2017-09-17T01:34:28.246Z,0.00
2017-09-17T01:35:28.240Z,0.00
2017-09-17T01:36:28.234Z,0.00
2017-09-17T01:37:28.230Z,0.00
2017-09-17T01:38:28.226Z,0.00
2017-09-17T01:39:28.221Z,0.00
2017-09-17T01:40:28.219Z,0.00
2017-09-17T01:41:28.219Z,0.00
2017-09-17T01:42:28.208Z,0.00
2017-09-17T01:43:28.202Z,0.00
2017-09-17T01:44:28.197Z,0.00
2017-09-17T01:45:28.193Z,0.00
2017-09-17T01:46:28.188Z,0.00
2017-09-17T01:47:28.182Z,0.00
2017-09-17T01:48:28.178Z,0.00
2017-09-17T01:49:28.173Z,0.00
2017-09-17T01:50:28.169Z,0.00
2017-09-17T01:51:28.164Z,0.00
2017-09-17T01:52:28.158Z,0.00
2017-09-17T01:53:28.154Z,0.00
2017-09-17T01:54:28.149Z,0.00
2017-09-17T01:55:28.144Z,0.00
2017-09-17T01:56:28.140Z,0.00
2017-09-17T01:57:28.136Z,0.00
2017-09-17T01:58:28.130Z,0.00
2017-09-17T01:59:28.125Z,0.00
2017-09-17T02:00:28.121Z,0.00
2017-09-17T02:01:28.115Z,0.00
2017-09-17T02:02:28.111Z,0.00
2017-09-17T02:03:28.106Z,0.00
2017-09-17T02:04:28.104Z,0.00
2017-09-17T02:05:28.099Z,0.00
2017-09-17T02:06:28.091Z,0.00
2017-09-17T02:07:28.086Z,0.00
2017-09-17T02:08:28.082Z,0.00
2017-09-17T02:09:28.077Z,0.00
2017-09-17T02:10:28.072Z,0.00
2017-09-17T02:11:28.067Z,0.00
2017-09-17T02:12:28.062Z,0.00
2017-09-17T02:13:28.056Z,0.00
2017-09-17T02:14:28.053Z,0.00
2017-09-17T02:15:28.046Z,0.00
2017-09-17T02:16:28.043Z,0.00
2017-09-17T02:17:28.038Z,0.00
2017-09-17T02:18:28.035Z,0.00
2017-09-17T02:19:28.026Z,0.00
2017-09-17T02:20:28.022Z,0.00
2017-09-17T02:21:28.018Z,0.00
2017-09-17T02:22:28.012Z,0.00
2017-09-17T02:23:28.007Z,0.00
2017-09-17T02:24:28.003Z,0.00
2017-09-17T02:25:27.996Z,0.00
2017-09-17T02:26:27.993Z,0.00
2017-09-17T02:27:27.987Z,0.00
2017-09-17T02:28:27.983Z,0.00
2017-09-17T02:29:27.979Z,0.00
2017-09-17T02:30:27.973Z,0.00
2017-09-17T02:31:27.967Z,0.00
2017-09-17T02:32:27.963Z,0.00
2017-09-17T02:33:27.958Z,0.00
2017-09-17T02:34:27.954Z,0.00
2017-09-17T02:35:27.948Z,0.00
2017-09-17T02:36:27.944Z,0.00
2017-09-17T02:37:27.938Z,0.00
2017-09-17T02:38:27.934Z,0.00
2017-09-17T02:39:27.928Z,0.00
2017-09-17T02:40:27.922Z,0.00
2017-09-17T02:41:27.919Z,0.00
2017-09-17T02:42:27.914Z,0.00
2017-09-17T02:43:27.908Z,0.00
2017-09-17T02:44:27.903Z,0.00
2017-09-17T02:45:27.897Z,0.00
2017-09-17T02:46:27.893Z,0.00
2017-09-17T02:47:27.887Z,0.00
2017-09-17T02:48:27.883Z,0.00
2017-09-17T02:49:27.877Z,0.00
2017-09-17T02:50:27.873Z,0.00
2017-09-17T02:51:27.867Z,0.00
2017-09-17T02:52:27.862Z,0.00
2017-09-17T02:53:27.858Z,0.00
2017-09-17T02:54:27.854Z,0.00
2017-09-17T02:55:27.847Z,0.00
2017-09-17T02:56:27.843Z,0.00
2017-09-17T02:57:27.838Z,0.00
2017-09-17T02:58:27.832Z,0.00
2017-09-17T02:59:27.827Z,0.00
2017-09-17T03:00:27.823Z,0.00
2017-09-17T03:01:27.817Z,0.00
2017-09-17T03:02:27.813Z,0.00
2017-09-17T03:03:27.805Z,0.00
2017-09-17T03:04:27.802Z,0.00
2017-09-17T03:05:27.796Z,0.00
2017-09-17T03:06:27.791Z,0.00
2017-09-17T03:07:27.786Z,0.00
2017-09-17T03:08:27.782Z,0.00
2017-09-17T03:09:27.778Z,0.00
2017-09-17T03:10:27.772Z,0.00
2017-09-17T03:11:27.765Z,0.00
2017-09-17T03:12:27.764Z,0.00
2017-09-17T03:13:27.756Z,0.00
2017-09-17T03:14:27.751Z,0.00
2017-09-17T03:15:27.746Z,0.00
2017-09-17T03:16:27.740Z,0.00
2017-09-17T03:17:27.734Z,0.00
2017-09-17T03:18:27.730Z,0.00
2017-09-17T03:19:27.725Z,0.00
2017-09-17T03:20:27.719Z,0.00
2017-09-17T03:21:27.715Z,0.00
2017-09-17T03:22:27.709Z,0.00
2017-09-17T03:23:27.704Z,0.00
2017-09-17T03:24:27.699Z,0.00
2017-09-17T03:25:27.693Z,0.00
2017-09-17T03:26:27.689Z,0.00
2017-09-17T03:27:27.683Z,0.00
2017-09-17T03:28:27.678Z,0.00
2017-09-17T03:29:27.673Z,0.00
2017-09-17T03:30:27.703Z,0.00
2017-09-17T03:31:27.661Z,0.00
2017-09-17T03:32:27.663Z,0.00
2017-09-17T03:33:27.652Z,0.00
2017-09-17T03:34:27.648Z,0.00
2017-09-17T03:35:27.641Z,0.00
2017-09-17T03:36:27.636Z,0.00
2017-09-17T03:37:27.632Z,0.00
2017-09-17T03:38:27.627Z,0.00
2017-09-17T03:39:27.625Z,0.00
2017-09-17T03:40:27.616Z,0.00
2017-09-17T03:41:27.614Z,0.00
2017-09-17T03:42:27.605Z,0.00
2017-09-17T03:43:27.600Z,0.00
2017-09-17T03:44:27.595Z,0.00
2017-09-17T03:45:27.591Z,0.00
2017-09-17T03:46:27.584Z,0.00
2017-09-17T03:47:27.579Z,0.00
2017-09-17T03:48:27.575Z,0.00
2017-09-17T03:49:27.571Z,0.00
2017-09-17T03:50:27.565Z,0.00
2017-09-17T03:51:27.558Z,0.00
2017-09-17T03:52:27.555Z,0.00
2017-09-17T03:53:27.553Z,0.00
2017-09-17T03:54:27.543Z,0.00
2017-09-17T03:55:27.537Z,0.00
2017-09-17T03:56:27.532Z,0.00
2017-09-17T03:57:27.527Z,0.00
2017-09-17T03:58:27.523Z,0.00
2017-09-17T03:59:27.524Z,0.00
2017-09-17T04:00:27.511Z,0.00
2017-09-17T04:01:27.506Z,0.00
2017-09-17T04:02:27.501Z,0.00
2017-09-17T04:03:27.497Z,0.00
2017-09-17T04:04:27.494Z,0.00
2017-09-17T04:05:27.486Z,0.00
2017-09-17T04:06:27.483Z,0.00
2017-09-17T04:07:27.476Z,0.00
2017-09-17T04:08:27.471Z,0.00
2017-09-17T04:09:27.466Z,0.00
2017-09-17T04:10:27.459Z,0.00
2017-09-17T04:11:27.483Z,0.00
2017-09-17T04:12:27.450Z,0.00
2017-09-17T04:13:27.445Z,0.00
2017-09-17T04:14:27.440Z,0.00
2017-09-17T04:15:27.434Z,0.00
2017-09-17T04:16:27.430Z,0.00
2017-09-17T04:17:27.423Z,0.00
2017-09-17T04:18:27.421Z,0.00
2017-09-17T04:19:27.413Z,0.00
2017-09-17T04:20:27.409Z,0.00
2017-09-17T04:21:27.402Z,0.00
2017-09-17T04:22:27.398Z,0.00
2017-09-17T04:23:27.392Z,0.00
2017-09-17T04:24:27.387Z,0.00
2017-09-17T04:25:27.384Z,0.00
2017-09-17T04:26:27.377Z,0.00
2017-09-17T04:27:27.373Z,0.00
2017-09-17T04:28:27.368Z,0.00
2017-09-17T04:29:27.362Z,0.00
2017-09-17T04:30:27.358Z,0.00
2017-09-17T04:31:27.354Z,0.00
2017-09-17T04:32:27.348Z,0.00
2017-09-17T04:33:27.342Z,0.00
2017-09-17T04:34:27.337Z,0.00
2017-09-17T04:35:27.330Z,0.00
2017-09-17T04:36:27.327Z,0.00
2017-09-17T04:37:27.322Z,0.00
2017-09-17T04:38:27.318Z,0.00
2017-09-17T04:39:27.317Z,0.00
2017-09-17T04:40:27.307Z,0.00
2017-09-17T04:41:27.302Z,0.00
2017-09-17T04:42:27.297Z,4.00
2017-09-17T04:43:27.290Z,4.00
2017-09-17T04:44:27.288Z,0.00
2017-09-17T04:45:27.282Z,4.00
2017-09-17T04:46:27.276Z,4.00
2017-09-17T04:47:27.277Z,4.00
2017-09-17T04:48:27.266Z,4.00
2017-09-17T04:49:27.262Z,8.00
2017-09-17T04:50:27.256Z,8.00
2017-09-17T04:51:27.251Z,8.00
2017-09-17T04:52:27.245Z,8.00
2017-09-17T04:53:27.243Z,8.00
2017-09-17T04:54:27.237Z,12.00
2017-09-17T04:55:27.229Z,16.00
2017-09-17T04:56:27.228Z,16.00
2017-09-17T04:57:27.222Z,20.00
2017-09-17T04:58:27.217Z,24.00
2017-09-17T04:59:27.224Z,28.00
2017-09-17T05:00:27.207Z,36.00
2017-09-17T05:01:27.202Z,36.00
2017-09-17T05:02:27.197Z,44.00
2017-09-17T05:03:27.191Z,52.00
2017-09-17T05:04:27.186Z,60.00
2017-09-17T05:05:27.181Z,68.00
2017-09-17T05:06:27.178Z,80.00
2017-09-17T05:07:27.172Z,92.00
2017-09-17T05:08:27.166Z,104.00
2017-09-17T05:09:27.165Z,116.00
2017-09-17T05:10:27.156Z,132.00
2017-09-17T05:11:27.151Z,152.00
2017-09-17T05:12:27.148Z,168.00
2017-09-17T05:13:27.143Z,188.00
2017-09-17T05:14:27.138Z,208.00
2017-09-17T05:15:27.132Z,228.00
2017-09-17T05:16:27.129Z,256.00
2017-09-17T05:17:27.123Z,284.00
2017-09-17T05:18:27.120Z,312.00
2017-09-17T05:19:27.114Z,344.00
2017-09-17T05:20:27.110Z,380.00
2017-09-17T05:21:27.102Z,412.00
2017-09-17T05:22:27.097Z,456.00
2017-09-17T05:23:27.093Z,496.00
2017-09-17T05:24:27.088Z,540.00
2017-09-17T05:25:27.083Z,584.00
2017-09-17T05:26:27.078Z,628.00
2017-09-17T05:27:27.073Z,672.00
2017-09-17T05:28:27.068Z,720.00
2017-09-17T05:29:27.063Z,776.00
2017-09-17T05:30:27.059Z,836.00
2017-09-17T05:31:27.053Z,892.00
2017-09-17T05:32:27.048Z,952.00
2017-09-17T05:33:27.042Z,1016.00
2017-09-17T05:34:27.039Z,1084.00
2017-09-17T05:35:27.033Z,1152.00
2017-09-17T05:36:27.028Z,1208.00
2017-09-17T05:37:27.025Z,1260.00
2017-09-17T05:38:27.019Z,1312.00
2017-09-17T05:39:27.015Z,1364.00
2017-09-17T05:40:27.009Z,1408.00
2017-09-17T05:41:27.003Z,1444.00
2017-09-17T05:42:26.999Z,1468.00
2017-09-17T05:43:26.994Z,1472.00
2017-09-17T05:44:26.990Z,1460.00
2017-09-17T05:45:26.986Z,1448.00
2017-09-17T05:46:26.980Z,1444.00
2017-09-17T05:47:26.975Z,1436.00
2017-09-17T05:48:26.969Z,1416.00
2017-09-17T05:49:26.964Z,1396.00
2017-09-17T05:50:26.961Z,1392.00
2017-09-17T05:51:26.955Z,1392.00
2017-09-17T05:52:26.951Z,1392.00
2017-09-17T05:53:26.948Z,1392.00
2017-09-17T05:54:26.941Z,1400.00
2017-09-17T05:55:26.937Z,1416.00
2017-09-17T05:56:26.931Z,1428.00
2017-09-17T05:57:26.927Z,1436.00
2017-09-17T05:58:26.923Z,1452.00
2017-09-17T05:59:26.916Z,1464.00
2017-09-17T06:00:26.912Z,1476.00
2017-09-17T06:01:26.909Z,1496.00
2017-09-17T06:02:26.904Z,1512.00
2017-09-17T06:03:26.898Z,1536.00
2017-09-17T06:04:26.892Z,1564.00
2017-09-17T06:05:26.889Z,1600.00
2017-09-17T06:06:26.885Z,1664.00
2017-09-17T06:07:26.878Z,1760.00
2017-09-17T06:08:26.873Z,1872.00
2017-09-17T06:09:26.869Z,1988.00
2017-09-17T06:10:26.866Z,2100.00
2017-09-17T06:11:26.858Z,2188.00
2017-09-17T06:12:26.855Z,2264.00
2017-09-17T06:13:26.850Z,2340.00
2017-09-17T06:14:26.844Z,2420.00
2017-09-17T06:15:26.840Z,2500.00
2017-09-17T06:16:26.835Z,2568.00
2017-09-17T06:17:26.832Z,2632.00
2017-09-17T06:18:26.825Z,2712.00
2017-09-17T06:19:26.820Z,2768.00
2017-09-17T06:20:26.816Z,2796.00
2017-09-17T06:21:26.812Z,2800.00
2017-09-17T06:22:26.808Z,2772.00
2017-09-17T06:23:26.802Z,2744.00
2017-09-17T06:24:26.799Z,2716.00
2017-09-17T06:25:26.797Z,2716.00
2017-09-17T06:26:26.788Z,2752.00
2017-09-17T06:27:26.784Z,2836.00
2017-09-17T06:28:26.778Z,2980.00
2017-09-17T06:29:26.779Z,3200.00
2017-09-17T06:30:26.772Z,3448.00
2017-09-17T06:31:26.766Z,3664.00
2017-09-17T06:32:26.761Z,3804.00
2017-09-17T06:33:26.757Z,3856.00
2017-09-17T06:34:26.754Z,3856.00
2017-09-17T06:35:26.749Z,3848.00
2017-09-17T06:36:26.743Z,3876.00
2017-09-17T06:37:26.740Z,3920.00
2017-09-17T06:38:26.739Z,3952.00
2017-09-17T06:39:26.730Z,3980.00
2017-09-17T06:40:26.727Z,4024.00
2017-09-17T06:41:26.724Z,4056.00
2017-09-17T06:42:26.719Z,4096.00
2017-09-17T06:43:26.715Z,4144.00
2017-09-17T06:44:26.712Z,4192.00
2017-09-17T06:45:26.707Z,4256.00
2017-09-17T06:46:26.704Z,4368.00
2017-09-17T06:47:26.699Z,4536.00
2017-09-17T06:48:26.696Z,4732.00
2017-09-17T06:49:26.691Z,4952.00
2017-09-17T06:50:26.688Z,5168.00
2017-09-17T06:51:26.684Z,5364.00
2017-09-17T06:52:26.686Z,5528.00
2017-09-17T06:53:26.680Z,5664.00
2017-09-17T06:54:26.673Z,5788.00
2017-09-17T06:55:26.668Z,5920.00
2017-09-17T06:56:26.664Z,6040.00
2017-09-17T06:57:26.662Z,6204.00
2017-09-17T06:58:26.659Z,6416.00
2017-09-17T06:59:26.660Z,6688.00
2017-09-17T07:00:26.653Z,7044.00
2017-09-17T07:01:26.648Z,7472.00
2017-09-17T07:02:26.644Z,7944.00
2017-09-17T07:03:26.640Z,8396.00
2017-09-17T07:04:26.637Z,8776.00
2017-09-17T07:05:26.635Z,9124.00
2017-09-17T07:06:26.633Z,9392.00
2017-09-17T07:07:26.628Z,9620.00
2017-09-17T07:08:26.625Z,9688.00
2017-09-17T07:09:26.620Z,9740.00
2017-09-17T07:10:26.618Z,9964.00
2017-09-17T07:11:26.615Z,10292.00
2017-09-17T07:12:26.612Z,10788.00
2017-09-17T07:13:26.609Z,11452.00
2017-09-17T07:14:26.609Z,12272.00
2017-09-17T07:15:26.603Z,13640.00
2017-09-17T07:16:26.601Z,16576.00
2017-09-17T07:17:26.599Z,14424.00
2017-09-17T07:18:26.597Z,19072.00
2017-09-17T07:19:26.594Z,14456.00
2017-09-17T07:20:26.591Z,17888.00
2017-09-17T07:21:26.591Z,12272.00
2017-09-17T07:22:26.590Z,10700.00
2017-09-17T07:23:26.587Z,9412.00
2017-09-17T07:24:26.586Z,8744.00
2017-09-17T07:25:26.584Z,8244.00
2017-09-17T07:26:26.582Z,7880.00
2017-09-17T07:27:26.581Z,7720.00
2017-09-17T07:28:26.581Z,7704.00
2017-09-17T07:29:26.579Z,7668.00
2017-09-17T07:30:26.579Z,7436.00
2017-09-17T07:31:26.577Z,7072.00
2017-09-17T07:32:26.576Z,6692.00
2017-09-17T07:33:26.574Z,6396.00
2017-09-17T07:34:26.575Z,6200.00
2017-09-17T07:35:26.572Z,6028.00
2017-09-17T07:36:26.572Z,5896.00
2017-09-17T07:37:26.570Z,5796.00
2017-09-17T07:38:26.571Z,5720.00
2017-09-17T07:39:26.568Z,5672.00
2017-09-17T07:40:26.566Z,5648.00
2017-09-17T07:41:26.566Z,5660.00
2017-09-17T07:42:26.564Z,5676.00
2017-09-17T07:43:26.561Z,4976.00
2017-09-17T07:44:26.559Z,5056.00
2017-09-17T07:45:26.559Z,5188.00
2017-09-17T07:46:26.562Z,5352.00
2017-09-17T07:47:26.556Z,5548.00
2017-09-17T07:48:26.553Z,5772.00
2017-09-17T07:49:26.553Z,5992.00
2017-09-17T07:50:26.552Z,6240.00
2017-09-17T07:51:26.549Z,6496.00
2017-09-17T07:52:26.555Z,6776.00
2017-09-17T07:53:26.545Z,7048.00
2017-09-17T07:54:26.544Z,7292.00
2017-09-17T07:55:26.542Z,7548.00
2017-09-17T07:56:26.542Z,7856.00
2017-09-17T07:57:26.538Z,8232.00
2017-09-17T07:58:26.538Z,8616.00
2017-09-17T07:59:26.535Z,9004.00
2017-09-17T08:00:26.534Z,9372.00
2017-09-17T08:01:26.531Z,9772.00
2017-09-17T08:02:26.530Z,10244.00
2017-09-17T08:03:26.529Z,10752.00
2017-09-17T08:04:26.528Z,11204.00
2017-09-17T08:05:26.527Z,11440.00
2017-09-17T08:06:26.529Z,11636.00
2017-09-17T08:07:26.523Z,11720.00
2017-09-17T08:08:26.521Z,11600.00
2017-09-17T08:09:26.520Z,11352.00
2017-09-17T08:10:26.519Z,11172.00
2017-09-17T08:11:26.520Z,10988.00
2017-09-17T08:12:26.520Z,10920.00
2017-09-17T08:13:26.520Z,10852.00
2017-09-17T08:14:26.514Z,10788.00
2017-09-17T08:15:26.522Z,10700.00
2017-09-17T08:16:26.510Z,10576.00
2017-09-17T08:17:26.513Z,10440.00
2017-09-17T08:18:26.517Z,10424.00
2017-09-17T08:19:26.514Z,10424.00
2017-09-17T08:20:26.508Z,10672.00
2017-09-17T08:21:26.507Z,11732.00
2017-09-17T08:22:26.518Z,12756.00
2017-09-17T08:23:26.505Z,13268.00
2017-09-17T08:24:26.513Z,11968.00
2017-09-17T08:25:26.504Z,11780.00
2017-09-17T08:26:26.505Z,12352.00
2017-09-17T08:27:26.503Z,14388.00
2017-09-17T08:28:26.536Z,13472.00
2017-09-17T08:29:26.732Z,12372.00
2017-09-17T08:30:26.626Z,11860.00
2017-09-17T08:31:26.546Z,11536.00
2017-09-17T08:32:26.613Z,11452.00
2017-09-17T08:33:26.506Z,11488.00
2017-09-17T08:34:26.538Z,11484.00
2017-09-17T08:35:26.497Z,11600.00
2017-09-17T08:36:26.497Z,11560.00
2017-09-17T08:37:26.498Z,11284.00
2017-09-17T08:38:26.503Z,10988.00
2017-09-17T08:39:26.495Z,10580.00
2017-09-17T08:40:26.495Z,10140.00
2017-09-17T08:41:26.494Z,9632.00
2017-09-17T08:42:26.493Z,9192.00
2017-09-17T08:43:26.494Z,8828.00
2017-09-17T08:44:26.493Z,8420.00
2017-09-17T08:45:26.493Z,7984.00
2017-09-17T08:46:26.491Z,7528.00
2017-09-17T08:47:26.491Z,7088.00
2017-09-17T08:48:26.492Z,6716.00
2017-09-17T08:49:26.491Z,6380.00
2017-09-17T08:50:26.490Z,6120.00
2017-09-17T08:51:26.489Z,5912.00
2017-09-17T08:52:26.488Z,5736.00
2017-09-17T08:53:26.489Z,5564.00
2017-09-17T08:54:26.488Z,5428.00
2017-09-17T08:55:26.486Z,5296.00
2017-09-17T08:56:26.487Z,5200.00
2017-09-17T08:57:26.489Z,5156.00
2017-09-17T08:58:26.485Z,5144.00
2017-09-17T08:59:26.483Z,5168.00
2017-09-17T09:00:26.499Z,5212.00
2017-09-17T09:01:26.481Z,5212.00
2017-09-17T09:02:26.482Z,5172.00
2017-09-17T09:03:26.478Z,5128.00
2017-09-17T09:04:26.478Z,5064.00
2017-09-17T09:05:26.478Z,4960.00
2017-09-17T09:06:26.477Z,4896.00
2017-09-17T09:07:26.475Z,4956.00
2017-09-17T09:08:26.474Z,5064.00
2017-09-17T09:09:26.479Z,5220.00
2017-09-17T09:10:26.473Z,5420.00
2017-09-17T09:11:26.471Z,5600.00
2017-09-17T09:12:26.469Z,5752.00
2017-09-17T09:13:26.469Z,5928.00
2017-09-17T09:14:26.507Z,6136.00
2017-09-17T09:15:26.466Z,6312.00
2017-09-17T09:16:26.503Z,6484.00
2017-09-17T09:17:26.464Z,6652.00
2017-09-17T09:18:26.462Z,6712.00
2017-09-17T09:19:26.460Z,6744.00
2017-09-17T09:20:26.459Z,6788.00
2017-09-17T09:21:26.459Z,6860.00
2017-09-17T09:22:26.455Z,6968.00
2017-09-17T09:23:26.455Z,7116.00
2017-09-17T09:24:26.452Z,7344.00
2017-09-17T09:25:26.452Z,7624.00
2017-09-17T09:26:26.451Z,7812.00
2017-09-17T09:27:26.450Z,7960.00
2017-09-17T09:28:26.447Z,8032.00
2017-09-17T09:29:26.447Z,8000.00
2017-09-17T09:30:26.445Z,7960.00
2017-09-17T09:31:26.444Z,7844.00
2017-09-17T09:32:26.443Z,7656.00
2017-09-17T09:33:26.442Z,7568.00
2017-09-17T09:34:26.446Z,7572.00
2017-09-17T09:35:26.437Z,7700.00
2017-09-17T09:36:26.437Z,7896.00
2017-09-17T09:37:26.440Z,8192.00
2017-09-17T09:38:26.434Z,8428.00
2017-09-17T09:39:26.434Z,8544.00
2017-09-17T09:40:26.434Z,8684.00
2017-09-17T09:41:26.432Z,8896.00
2017-09-17T09:42:26.431Z,9188.00
2017-09-17T09:43:26.430Z,9428.00
2017-09-17T09:44:26.429Z,9564.00
2017-09-17T09:45:26.427Z,9528.00
2017-09-17T09:46:26.426Z,9468.00
2017-09-17T09:47:26.427Z,9536.00
2017-09-17T09:48:26.424Z,9684.00
2017-09-17T09:49:26.426Z,10064.00
2017-09-17T09:50:26.423Z,10524.00
2017-09-17T09:51:26.421Z,10904.00
2017-09-17T09:52:26.421Z,11280.00
2017-09-17T09:53:26.421Z,11700.00
2017-09-17T09:54:26.420Z,12024.00
2017-09-17T09:55:26.418Z,12200.00
2017-09-17T09:56:26.418Z,12224.00
2017-09-17T09:57:26.418Z,12104.00
2017-09-17T09:58:26.425Z,11976.00
2017-09-17T09:59:26.416Z,11756.00
2017-09-17T10:00:26.416Z,11540.00
2017-09-17T10:01:26.416Z,11572.00
2017-09-17T10:02:26.416Z,11880.00
2017-09-17T10:03:26.414Z,13216.00
2017-09-17T10:04:26.414Z,13560.00
2017-09-17T10:05:26.413Z,12872.00
2017-09-17T10:06:26.414Z,13472.00
2017-09-17T10:07:26.412Z,14356.00
2017-09-17T10:08:26.414Z,15336.00
2017-09-17T10:09:26.416Z,16864.00
2017-09-17T10:10:26.414Z,20800.00
2017-09-17T10:11:26.414Z,23968.00
2017-09-17T10:12:26.416Z,22624.00
2017-09-17T10:13:26.414Z,19968.00
2017-09-17T10:14:26.416Z,20736.00
2017-09-17T10:15:26.416Z,19264.00
2017-09-17T10:16:26.419Z,18304.00
2017-09-17T10:17:26.420Z,17792.00
2017-09-17T10:18:26.422Z,17472.00
2017-09-17T10:19:26.423Z,16864.00
2017-09-17T10:20:26.427Z,16288.00
2017-09-17T10:21:26.426Z,15824.00
2017-09-17T10:22:26.429Z,15536.00
2017-09-17T10:23:26.430Z,15324.00
2017-09-17T10:24:26.432Z,15332.00
2017-09-17T10:25:26.435Z,15572.00
2017-09-17T10:26:26.438Z,16320.00
2017-09-17T10:27:26.440Z,18880.00
2017-09-17T10:28:26.444Z,17600.00
2017-09-17T10:29:26.447Z,17568.00
2017-09-17T10:30:26.448Z,17568.00
2017-09-17T10:31:26.450Z,17664.00
2017-09-17T10:32:26.452Z,17856.00
2017-09-17T10:33:26.459Z,17952.00
2017-09-17T10:34:26.460Z,17856.00
2017-09-17T10:35:26.462Z,17664.00
2017-09-17T10:36:26.465Z,17408.00
2017-09-17T10:37:26.468Z,17056.00
2017-09-17T10:38:26.473Z,16896.00
2017-09-17T10:39:26.474Z,17664.00
2017-09-17T10:40:26.478Z,17696.00
2017-09-17T10:41:26.481Z,20704.00
2017-09-17T10:42:26.486Z,22304.00
2017-09-17T10:43:26.488Z,23520.00
2017-09-17T10:44:26.500Z,20064.00
2017-09-17T10:45:26.494Z,21312.00
2017-09-17T10:46:26.499Z,34112.00
2017-09-17T10:47:26.501Z,38368.00
2017-09-17T10:48:26.506Z,38112.00
2017-09-17T10:49:26.511Z,21152.00
2017-09-17T10:50:26.515Z,21312.00
2017-09-17T10:51:26.519Z,20896.00
2017-09-17T10:52:26.525Z,31648.00
2017-09-17T10:53:26.530Z,31936.00
2017-09-17T10:54:26.535Z,31904.00
2017-09-17T10:55:26.540Z,33056.00
2017-09-17T10:56:26.548Z,32256.00
2017-09-17T10:57:26.554Z,27552.00
2017-09-17T10:58:26.561Z,25024.00
2017-09-17T10:59:26.568Z,26272.00
2017-09-17T11:00:26.575Z,22080.00
2017-09-17T11:01:26.583Z,19264.00
2017-09-17T11:02:26.592Z,18080.00
2017-09-17T11:03:26.598Z,15120.00
2017-09-17T11:04:26.608Z,16180.00
2017-09-17T11:05:26.617Z,20928.00
2017-09-17T11:06:26.625Z,30368.00
2017-09-17T11:07:26.634Z,29280.00
2017-09-17T11:08:26.643Z,26400.00
2017-09-17T11:09:26.652Z,21248.00
2017-09-17T11:10:26.661Z,21504.00
2017-09-17T11:11:26.669Z,29536.00
2017-09-17T11:12:26.680Z,32192.00
2017-09-17T11:13:26.685Z,32768.00
2017-09-17T11:14:26.695Z,32096.00
2017-09-17T11:15:26.705Z,31872.00
2017-09-17T11:16:26.712Z,33952.00
2017-09-17T11:17:26.722Z,17504.00
2017-09-17T11:18:26.754Z,19488.00
2017-09-17T11:19:26.738Z,15568.00
2017-09-17T11:20:26.749Z,12412.00
2017-09-17T11:21:26.758Z,11612.00
2017-09-17T11:22:26.771Z,11492.00
2017-09-17T11:23:26.795Z,10232.00
2017-09-17T11:24:26.782Z,9972.00
2017-09-17T11:25:26.791Z,10256.00
2017-09-17T11:26:26.799Z,10264.00
2017-09-17T11:27:26.806Z,10616.00
2017-09-17T11:28:26.813Z,10492.00
2017-09-17T11:29:26.821Z,10160.00
2017-09-17T11:30:26.829Z,10644.00
2017-09-17T11:31:26.834Z,10544.00
2017-09-17T11:32:26.839Z,10196.00
2017-09-17T11:33:26.853Z,9808.00
2017-09-17T11:34:26.855Z,9340.00
2017-09-17T11:35:26.860Z,9272.00
2017-09-17T11:36:26.867Z,9192.00
2017-09-17T11:37:26.871Z,9068.00
2017-09-17T11:38:26.877Z,8956.00
2017-09-17T11:39:26.883Z,8860.00
2017-09-17T11:40:26.887Z,9048.00
2017-09-17T11:41:26.893Z,9328.00
2017-09-17T11:42:26.898Z,9896.00
2017-09-17T11:43:26.902Z,10400.00
2017-09-17T11:44:26.908Z,10896.00
2017-09-17T11:45:26.912Z,11232.00
2017-09-17T11:46:26.918Z,11576.00
2017-09-17T11:47:26.922Z,11856.00
2017-09-17T11:48:26.927Z,12324.00
2017-09-17T11:49:26.930Z,12272.00
2017-09-17T11:50:26.934Z,12684.00
2017-09-17T11:51:26.939Z,13112.00
2017-09-17T11:52:26.946Z,12884.00
2017-09-17T11:53:26.948Z,13256.00
2017-09-17T11:54:26.951Z,13420.00
2017-09-17T11:55:26.957Z,12588.00
2017-09-17T11:56:26.959Z,13524.00
2017-09-17T11:57:26.962Z,13908.00
2017-09-17T11:58:26.971Z,13372.00
2017-09-17T11:59:26.971Z,12608.00
2017-09-17T12:00:26.975Z,11980.00
2017-09-17T12:01:26.980Z,11400.00
2017-09-17T12:02:26.991Z,11176.00
2017-09-17T12:03:26.987Z,10824.00
2017-09-17T12:04:26.992Z,11936.00
2017-09-17T12:05:26.994Z,11976.00
2017-09-17T12:06:26.999Z,11956.00
2017-09-17T12:07:27.002Z,11712.00
2017-09-17T12:08:27.006Z,10628.00
2017-09-17T12:09:27.010Z,10232.00
2017-09-17T12:10:27.015Z,11776.00
2017-09-17T12:11:27.020Z,12604.00
2017-09-17T12:12:27.025Z,12764.00
2017-09-17T12:13:27.026Z,13080.00
2017-09-17T12:14:27.029Z,12988.00
2017-09-17T12:15:27.035Z,12432.00
2017-09-17T12:16:27.036Z,11848.00
2017-09-17T12:17:27.041Z,11480.00
2017-09-17T12:18:27.045Z,11272.00
2017-09-17T12:19:27.050Z,11240.00
2017-09-17T12:20:27.052Z,10132.00
2017-09-17T12:21:27.058Z,9800.00
2017-09-17T12:22:27.061Z,9428.00
2017-09-17T12:23:27.064Z,8840.00
2017-09-17T12:24:27.069Z,9284.00
2017-09-17T12:25:27.072Z,9912.00
2017-09-17T12:26:27.076Z,8172.00
2017-09-17T12:27:27.080Z,8860.00
2017-09-17T12:28:27.085Z,7588.00